| time (UTC) | temp F | wind direction | speed MPH | gust MPH | rain 1hr in | rain 24hr in | rain mn in | humidity % | barometer mb |
| 20260507103008 | 72 | 69 | 2.0 | 4.0 | 0.00 | 0.01 | 0.00 | 58 | 1013.2 |
| 20260507102109 | 72 | 138 | 2.0 | 9.0 | 0.00 | 0.01 | 0.00 | 58 | 1013.2 |
| 20260507101209 | 69 | 141 | 4.0 | 9.0 | 0.00 | 0.01 | 0.00 | 59 | 1013.4 |
| 20260507100310 | 70 | 90 | 2.0 | 7.0 | 0.00 | 0.01 | 0.00 | 59 | 1013.3 |
| 20260507095409 | 69 | 142 | 3.0 | 6.0 | 0.00 | 0.01 | 0.00 | 61 | 1013.0 |
| 20260507094508 | 69 | 100 | 1.0 | 4.0 | 0.00 | 0.01 | 0.00 | 59 | 1013.2 |
| 20260507092711 | 69 | 158 | 1.0 | 4.0 | 0.00 | 0.01 | 0.00 | 66 | 1013.2 |
| 20260507091810 | 68 | 165 | 1.0 | 4.0 | 0.00 | 0.01 | 0.00 | 65 | 1013.4 |
| 20260507090910 | 68 | 128 | 1.0 | 2.0 | 0.00 | 0.01 | 0.00 | 64 | 1013.5 |
| 20260507090011 | 67 | 108 | 1.0 | 2.0 | 0.00 | 0.01 | 0.00 | 66 | 1013.5 |
| 20260507085109 | 66 | 172 | 0.0 | 4.0 | 0.00 | 0.01 | 0.00 | 69 | 1013.6 |
| 20260507084209 | 68 | 166 | 1.0 | 2.0 | 0.00 | 0.01 | 0.00 | 68 | 1013.6 |
| 20260507082409 | 62 | 94 | 2.0 | 2.0 | 0.00 | 0.01 | 0.00 | 75 | 1013.5 |
| 20260507075711 | 63 | 167 | 2.0 | 2.0 | 0.00 | 0.01 | 0.00 | 75 | 1013.5 |
| 20260507074810 | 62 | 164 | 1.0 | 2.0 | 0.00 | 0.01 | 0.00 | 79 | 1013.6 |
| 20260507073009 | 60 | 127 | 0.0 | 4.0 | 0.00 | 0.01 | 0.00 | 81 | 1013.4 |
| 20260507072124 | 60 | 52 | 1.0 | 2.0 | 0.00 | 0.01 | 0.00 | 81 | 1013.4 |
| 20260507065410 | 57 | 23 | 0.0 | 2.0 | 0.00 | 0.01 | 0.00 | 84 | 1013.3 |
| 20260507064509 | 57 | 23 | 0.0 | 2.0 | 0.00 | 0.01 | 0.00 | 84 | 1013.4 |
| 20260507063609 | 56 | 0 | 0.0 | 0.0 | 0.00 | 0.01 | 0.00 | 83 | 1013.0 |
| 20260507062709 | 56 | 0 | 0.0 | 0.0 | 0.00 | 0.01 | 0.00 | 83 | 1013.1 |
| 20260507061809 | 56 | 23 | 0.0 | 2.0 | 0.00 | 0.02 | 0.00 | 83 | 1013.0 |
| 20260507060909 | 55 | 0 | 0.0 | 0.0 | 0.00 | 0.02 | 0.00 | 83 | 1012.9 |
| 20260507060009 | 55 | 0 | 0.0 | 0.0 | 0.00 | 0.02 | 0.00 | 85 | 1012.8 |
| 20260507055110 | 54 | 0 | 0.0 | 0.0 | 0.00 | 0.05 | 0.00 | 86 | 1012.6 |
| 20260507054209 | 54 | 0 | 0.0 | 0.0 | 0.00 | 0.05 | 0.00 | 87 | 1012.7 |
| 20260507053309 | 53 | 0 | 0.0 | 0.0 | 0.00 | 0.11 | 0.00 | 88 | 1012.7 |
| 20260507052410 | 53 | 0 | 0.0 | 0.0 | 0.00 | 0.11 | 0.00 | 88 | 1012.6 |
| 20260507051510 | 53 | 0 | 0.0 | 0.0 | 0.00 | 0.39 | 0.00 | 89 | 1012.6 |
| 20260507050610 | 52 | 1 | 0.0 | 2.0 | 0.00 | 0.39 | 0.00 | 89 | 1012.5 |
| 20260507045709 | 52 | 0 | 0.0 | 0.0 | 0.00 | 0.70 | 0.00 | 89 | 1012.4 |
| 20260507044809 | 51 | 0 | 0.0 | 0.0 | 0.00 | 0.70 | 0.00 | 89 | 1012.3 |
| 20260507043909 | 51 | 0 | 0.0 | 0.0 | 0.00 | 1.62 | 0.00 | 89 | 1012.1 |
| 20260507043010 | 51 | 0 | 0.0 | 0.0 | 0.00 | 1.62 | 0.00 | 89 | 1012.1 |
| 20260507042110 | 51 | 0 | 0.0 | 0.0 | 0.00 | 1.62 | 0.00 | 89 | 1012.2 |
| 20260507040311 | 51 | 1 | 0.0 | 2.0 | 0.00 | 1.62 | 0.00 | 89 | 1012.2 |
| 20260507035409 | 51 | 2 | 0.0 | 2.0 | 0.00 | 1.62 | 0.00 | 89 | 1012.1 |
| 20260507033610 | 51 | 0 | 0.0 | 0.0 | 0.00 | 2.62 | 0.00 | 89 | 1012.1 |
| 20260507032710 | 52 | 1 | 0.0 | 2.0 | 0.00 | 2.62 | 0.00 | 89 | 1012.1 |
| 20260507030011 | 52 | 4 | 0.0 | 2.0 | 0.00 | 2.62 | 0.00 | 89 | 1012.0 |
| 20260507025109 | 52 | 1 | 1.0 | 2.0 | 0.00 | 2.62 | 0.00 | 89 | 1011.9 |
| 20260507024210 | 52 | 1 | 0.0 | 2.0 | 0.00 | 2.62 | 0.00 | 89 | 1012.0 |
| 20260507023310 | 53 | 1 | 0.0 | 2.0 | 0.00 | 2.62 | 0.00 | 89 | 1012.1 |
| 20260507022409 | 53 | 0 | 0.0 | 0.0 | 0.00 | 2.62 | 0.00 | 89 | 1012.0 |
| 20260507021511 | 54 | 0 | 0.0 | 0.0 | 0.00 | 2.63 | 0.00 | 89 | 1012.1 |
| 20260507020610 | 54 | 0 | 0.0 | 0.0 | 0.00 | 2.63 | 0.00 | 89 | 1012.1 |
| 20260507015710 | 54 | 1 | 0.0 | 2.0 | 0.00 | 2.63 | 0.00 | 88 | 1012.3 |
| 20260507014810 | 54 | 1 | 0.0 | 2.0 | 0.00 | 2.63 | 0.00 | 88 | 1012.1 |
| 20260507013910 | 54 | 22 | 0.0 | 2.0 | 0.00 | 2.66 | 0.00 | 89 | 1012.0 |
| 20260507013010 | 54 | 0 | 0.0 | 0.0 | 0.00 | 2.66 | 0.00 | 89 | 1011.9 |
| 20260507012111 | 55 | 0 | 0.0 | 0.0 | 0.00 | 2.66 | 0.00 | 89 | 1011.9 |
| 20260507010310 | 55 | 0 | 0.0 | 0.0 | 0.00 | 3.11 | 0.00 | 89 | 1012.0 |
| 20260507005410 | 55 | 0 | 0.0 | 0.0 | 0.00 | 3.11 | 0.00 | 89 | 1012.0 |
| 20260507004510 | 55 | 0 | 0.0 | 0.0 | 0.00 | 3.11 | 0.00 | 89 | 1012.1 |
| 20260507000011 | 55 | 0 | 0.0 | 0.0 | 0.00 | 3.24 | 0.00 | 88 | 1012.0 |
| 20260506235110 | 55 | 1 | 0.0 | 2.0 | 0.00 | 3.74 | 0.00 | 88 | 1012.0 |
| 20260506234210 | 55 | 10 | 1.0 | 2.0 | 0.00 | 3.74 | 0.00 | 88 | 1012.1 |
| 20260506232410 | 55 | 0 | 0.0 | 0.0 | 0.00 | 3.74 | 0.00 | 88 | 1012.1 |
| 20260506231510 | 55 | 1 | 0.0 | 2.0 | 0.00 | 3.74 | 0.00 | 88 | 1011.9 |
| 20260506230613 | 55 | 1 | 0.0 | 2.0 | 0.00 | 3.74 | 0.00 | 88 | 1012.0 |
| 20260506225711 | 56 | 0 | 0.0 | 0.0 | 0.00 | 3.74 | 0.00 | 88 | 1012.3 |
| 20260506223910 | 56 | 1 | 0.0 | 2.0 | 0.00 | 3.74 | 0.00 | 87 | 1012.0 |
| 20260506223010 | 56 | 1 | 0.0 | 2.0 | 0.00 | 3.74 | 0.00 | 87 | 1011.8 |
| 20260506222113 | 56 | 2 | 0.0 | 2.0 | 0.00 | 3.74 | 0.00 | 87 | 1011.8 |
| 20260506221210 | 56 | 12 | 0.0 | 2.0 | 0.00 | 3.74 | 0.00 | 87 | 1012.0 |
| 20260506215354 | 57 | 1 | 0.0 | 2.0 | 0.00 | 3.74 | 1.38 | 85 | 1011.8 |
| 20260506214454 | 57 | 1 | 0.0 | 2.0 | 0.00 | 3.74 | 1.38 | 85 | 1011.6 |
| 20260506213554 | 57 | 1 | 0.0 | 2.0 | 0.00 | 3.74 | 1.38 | 85 | 1011.8 |
| 20260506212657 | 57 | 1 | 0.0 | 2.0 | 0.00 | 3.74 | 1.38 | 85 | 1011.7 |
| 20260506211754 | 57 | 1 | 0.0 | 2.0 | 0.00 | 3.74 | 1.38 | 86 | 1011.7 |
| 20260506210854 | 57 | 1 | 1.0 | 2.0 | 0.00 | 3.74 | 1.38 | 86 | 1011.5 |
| 20260506205954 | 58 | 1 | 1.0 | 2.0 | 0.00 | 3.98 | 1.38 | 86 | 1011.7 |
| 20260506205054 | 58 | 1 | 0.0 | 2.0 | 0.00 | 3.98 | 1.38 | 86 | 1011.6 |
| 20260506204155 | 58 | 1 | 1.0 | 2.0 | 0.00 | 3.98 | 1.38 | 86 | 1011.4 |
| 20260506201454 | 58 | 1 | 0.0 | 2.0 | 0.00 | 4.00 | 1.38 | 85 | 1011.2 |
| 20260506200558 | 59 | 1 | 0.0 | 2.0 | 0.00 | 4.00 | 1.38 | 85 | 1011.1 |
| 20260506195654 | 59 | 1 | 0.0 | 2.0 | 0.00 | 4.02 | 1.38 | 85 | 1010.9 |
| 20260506194754 | 59 | 2 | 0.0 | 2.0 | 0.00 | 4.02 | 1.38 | 85 | 1011.0 |
| 20260506193854 | 59 | 1 | 0.0 | 2.0 | 0.00 | 4.09 | 1.38 | 85 | 1010.8 |
| 20260506192954 | 60 | 0 | 0.0 | 0.0 | 0.00 | 4.09 | 1.38 | 84 | 1010.7 |
| 20260506192054 | 60 | 1 | 0.0 | 2.0 | 0.00 | 4.09 | 1.38 | 83 | 1010.5 |
| 20260506191154 | 61 | 1 | 0.0 | 2.0 | 0.00 | 4.18 | 1.38 | 83 | 1010.4 |
| 20260506190254 | 61 | 1 | 0.0 | 2.0 | 0.00 | 4.18 | 1.38 | 82 | 1010.2 |
| 20260506185354 | 62 | 0 | 0.0 | 0.0 | 0.00 | 4.18 | 1.38 | 81 | 1010.1 |
| 20260506183554 | 62 | 22 | 0.0 | 2.0 | 0.00 | 4.18 | 1.38 | 79 | 1010.2 |
| 20260506182654 | 62 | 23 | 0.0 | 2.0 | 0.00 | 4.18 | 1.38 | 78 | 1009.8 |
| 20260506181755 | 63 | 33 | 0.0 | 2.0 | 0.00 | 4.18 | 1.38 | 77 | 1009.7 |
| 20260506180854 | 63 | 0 | 0.0 | 0.0 | 0.00 | 4.18 | 1.38 | 77 | 1009.6 |
| 20260506174154 | 64 | 45 | 0.0 | 2.0 | 0.00 | 4.18 | 1.38 | 74 | 1009.5 |
| 20260506173254 | 64 | 24 | 0.0 | 2.0 | 0.00 | 4.18 | 1.38 | 74 | 1009.2 |
| 20260506172354 | 64 | 33 | 0.0 | 2.0 | 0.00 | 4.18 | 1.38 | 73 | 1009.5 |
| 20260506171454 | 64 | 30 | 1.0 | 4.0 | 0.00 | 4.18 | 1.38 | 73 | 1009.4 |
| 20260506170554 | 64 | 39 | 2.0 | 4.0 | 0.00 | 4.18 | 1.38 | 73 | 1009.5 |
| 20260506165654 | 64 | 33 | 1.0 | 4.0 | 0.00 | 4.18 | 1.38 | 73 | 1009.7 |
| 20260506164755 | 65 | 24 | 1.0 | 2.0 | 0.00 | 4.18 | 1.38 | 73 | 1009.5 |
| 20260506163854 | 65 | 29 | 0.0 | 4.0 | 0.00 | 4.18 | 1.38 | 73 | 1009.4 |
| 20260506162955 | 65 | 30 | 0.0 | 4.0 | 0.00 | 4.18 | 1.38 | 70 | 1009.5 |
| 20260506162055 | 65 | 37 | 2.0 | 4.0 | 0.00 | 4.18 | 1.38 | 68 | 1009.4 |
| 20260506161155 | 65 | 48 | 2.0 | 4.0 | 0.00 | 4.18 | 1.38 | 65 | 1009.6 |
| 20260506160255 | 66 | 45 | 2.0 | 7.0 | 0.00 | 4.18 | 1.38 | 66 | 1009.3 |
| 20260506155355 | 67 | 73 | 3.0 | 4.0 | 0.00 | 4.18 | 1.38 | 66 | 1009.4 |
| 20260506154455 | 67 | 43 | 2.0 | 4.0 | 0.00 | 4.18 | 1.38 | 67 | 1009.5 |
| 20260506153555 | 67 | 39 | 2.0 | 4.0 | 0.00 | 4.18 | 1.38 | 68 | 1009.6 |
| 20260506152655 | 67 | 39 | 1.0 | 6.0 | 0.00 | 4.18 | 1.38 | 67 | 1009.4 |
| 20260506151755 | 67 | 21 | 3.0 | 4.0 | 0.00 | 4.18 | 1.38 | 65 | 1009.5 |
| 20260506150855 | 67 | 28 | 1.0 | 4.0 | 0.00 | 4.18 | 1.38 | 67 | 1009.6 |
| 20260506145955 | 67 | 36 | 1.0 | 4.0 | 0.00 | 4.18 | 1.38 | 67 | 1009.5 |
| 20260506145055 | 66 | 24 | 2.0 | 6.0 | 0.00 | 4.18 | 1.38 | 68 | 1009.6 |
| 20260506144155 | 67 | 25 | 2.0 | 7.0 | 0.00 | 4.18 | 1.38 | 69 | 1009.5 |
| 20260506143255 | 67 | 37 | 3.0 | 7.0 | 0.00 | 4.18 | 1.38 | 69 | 1009.1 |
| 20260506142355 | 67 | 17 | 2.0 | 7.0 | 0.00 | 4.18 | 1.38 | 72 | 1009.1 |
| 20260506141455 | 66 | 52 | 2.0 | 6.0 | 0.00 | 4.18 | 1.38 | 72 | 1009.3 |
| 20260506135655 | 67 | 30 | 2.0 | 8.0 | 0.00 | 4.18 | 1.38 | 72 | 1009.1 |
| 20260506134755 | 68 | 49 | 3.0 | 7.0 | 0.00 | 4.18 | 1.38 | 72 | 1009.3 |
| 20260506133856 | 67 | 41 | 1.0 | 7.0 | 0.00 | 4.18 | 1.38 | 74 | 1009.5 |
| 20260506132055 | 66 | 49 | 4.0 | 6.0 | 0.00 | 4.18 | 1.38 | 74 | 1009.3 |
| 20260506131155 | 67 | 25 | 2.0 | 8.0 | 0.00 | 4.18 | 1.38 | 73 | 1009.5 |
| 20260506130255 | 67 | 81 | 3.0 | 8.0 | 0.00 | 4.18 | 1.38 | 72 | 1009.6 |
| 20260506125355 | 67 | 71 | 2.0 | 4.0 | 0.00 | 4.19 | 1.38 | 76 | 1009.8 |
| 20260506124455 | 67 | 43 | 2.0 | 6.0 | 0.00 | 4.19 | 1.38 | 76 | 1009.6 |
| 20260506123555 | 66 | 37 | 1.0 | 4.0 | 0.00 | 4.22 | 1.38 | 78 | 1009.6 |
| 20260506121755 | 66 | 4 | 1.0 | 7.0 | 0.01 | 4.22 | 1.38 | 77 | 1009.6 |
| 20260506120855 | 68 | 92 | 1.0 | 6.0 | 0.01 | 4.22 | 1.38 | 76 | 1009.4 |
| 20260506115955 | 69 | 149 | 0.0 | 6.0 | 0.01 | 4.25 | 1.38 | 77 | 1009.2 |
| 20260506114155 | 68 | 156 | 1.0 | 2.0 | 0.01 | 4.25 | 1.38 | 80 | 1008.9 |
| 20260506113255 | 67 | 164 | 0.0 | 4.0 | 0.01 | 4.77 | 1.38 | 83 | 1009.2 |
| 20260506110556 | 69 | 168 | 3.0 | 11.0 | 0.00 | 4.78 | 1.37 | 76 | 1009.3 |
| 20260506105656 | 70 | 168 | 3.0 | 7.0 | 0.00 | 4.83 | 1.37 | 76 | 1009.1 |